createdAt,value
2023-05-14T00:00:22.597Z,19.30
2023-05-14T00:02:49.451Z,17.40
2023-05-14T00:05:15.999Z,20.33
2023-05-14T00:07:43.544Z,16.80
2023-05-14T00:10:10.591Z,15.40
2023-05-14T00:12:37.111Z,17.30
2023-05-14T00:15:04.363Z,17.07
2023-05-14T00:17:30.878Z,18.27
2023-05-14T00:19:57.521Z,16.77
2023-05-14T00:22:24.081Z,19.87
2023-05-14T00:24:50.615Z,19.17
2023-05-14T00:27:17.123Z,16.70
2023-05-14T00:29:43.792Z,15.20
2023-05-14T00:32:10.801Z,18.10
2023-05-14T00:34:37.313Z,16.67
2023-05-14T00:37:04.113Z,18.47
2023-05-14T00:39:30.570Z,15.97
2023-05-14T00:41:57.044Z,15.07
2023-05-14T00:44:23.766Z,20.10
2023-05-14T00:46:50.484Z,17.13
2023-05-14T00:49:17.809Z,21.43
2023-05-14T00:51:46.873Z,20.93
2023-05-14T00:54:17.176Z,24.00
2023-05-14T00:56:46.065Z,16.30
2023-05-14T00:59:13.741Z,16.90
2023-05-14T01:01:40.542Z,19.97
2023-05-14T01:04:07.689Z,17.83
2023-05-14T01:06:59.158Z,19.67
2023-05-14T01:09:45.251Z,15.97
2023-05-14T01:12:31.135Z,19.30
2023-05-14T01:15:12.629Z,16.07
2023-05-14T01:17:45.228Z,17.20
2023-05-14T01:20:12.472Z,19.43
2023-05-14T01:22:38.989Z,17.93
2023-05-14T01:25:06.477Z,18.70
2023-05-14T01:27:46.290Z,19.73
2023-05-14T01:30:23.438Z,19.70
2023-05-14T01:32:53.597Z,20.97
2023-05-14T01:35:24.534Z,19.77
2023-05-14T01:37:52.525Z,17.10
2023-05-14T01:40:20.192Z,19.67
2023-05-14T01:42:47.203Z,17.67
2023-05-14T01:45:13.721Z,18.10
2023-05-14T01:47:40.257Z,25.63
2023-05-14T01:50:06.965Z,16.80
2023-05-14T01:52:33.993Z,24.60
2023-05-14T01:55:00.759Z,18.00
2023-05-14T01:57:27.359Z,21.90
2023-05-14T01:59:53.817Z,14.03
2023-05-14T02:02:20.362Z,20.40
2023-05-14T02:04:47.043Z,17.73
2023-05-14T02:07:13.591Z,30.20
2023-05-14T02:09:41.023Z,18.10
2023-05-14T02:12:08.980Z,20.53
2023-05-14T02:14:35.871Z,20.20
2023-05-14T02:17:03.442Z,18.40
2023-05-14T02:19:30.469Z,19.33
2023-05-14T02:21:59.469Z,17.23
2023-05-14T02:24:25.920Z,16.93
2023-05-14T02:26:52.638Z,18.27
2023-05-14T02:29:19.067Z,15.20
2023-05-14T02:31:45.602Z,16.57
2023-05-14T02:34:12.070Z,17.63
2023-05-14T02:36:38.543Z,13.67
2023-05-14T02:39:05.020Z,18.80
2023-05-14T02:41:31.482Z,16.60
2023-05-14T02:43:57.949Z,17.20
2023-05-14T02:46:25.230Z,16.13
2023-05-14T02:48:51.702Z,18.47
2023-05-14T02:51:20.462Z,18.67
2023-05-14T02:53:47.020Z,15.33
2023-05-14T02:56:13.516Z,18.00
2023-05-14T02:58:40.161Z,15.97
2023-05-14T03:01:07.040Z,17.70
2023-05-14T03:03:34.973Z,17.10
2023-05-14T03:06:01.588Z,16.97
2023-05-14T03:08:28.093Z,16.43
2023-05-14T03:10:54.612Z,15.37
2023-05-14T03:13:21.193Z,16.23
2023-05-14T03:15:48.441Z,14.77
2023-05-14T03:18:15.091Z,15.63
2023-05-14T03:20:42.221Z,16.93
2023-05-14T03:23:08.732Z,19.80
2023-05-14T03:25:36.438Z,17.60
2023-05-14T03:28:03.814Z,18.90
2023-05-14T03:30:30.529Z,14.83
2023-05-14T03:32:57.248Z,21.90
2023-05-14T03:35:23.727Z,19.27
2023-05-14T03:37:50.870Z,19.33
2023-05-14T03:40:17.411Z,20.93
2023-05-14T03:42:43.902Z,19.13
2023-05-14T03:45:10.724Z,28.37
2023-05-14T03:47:37.275Z,25.00
2023-05-14T03:50:04.078Z,24.83
2023-05-14T03:52:30.686Z,23.30
2023-05-14T03:54:57.184Z,20.63
2023-05-14T03:57:23.680Z,22.13
2023-05-14T03:59:50.190Z,21.30
2023-05-14T04:02:16.729Z,22.73
2023-05-14T04:04:43.536Z,20.17
2023-05-14T04:07:10.092Z,24.97
2023-05-14T04:09:36.610Z,25.87
2023-05-14T04:12:03.433Z,19.20
2023-05-14T04:14:30.072Z,20.13
2023-05-14T04:16:56.507Z,24.77
2023-05-14T04:19:22.987Z,18.63
2023-05-14T04:21:49.444Z,27.80
2023-05-14T04:24:17.116Z,19.87
2023-05-14T04:26:43.553Z,25.23
2023-05-14T04:29:10.027Z,17.53
2023-05-14T04:31:36.614Z,25.57
2023-05-14T04:34:03.127Z,24.10
2023-05-14T04:36:29.586Z,21.50
2023-05-14T04:38:56.630Z,19.40
2023-05-14T04:41:23.112Z,21.17
2023-05-14T04:43:50.818Z,18.70
2023-05-14T04:46:17.371Z,25.30
2023-05-14T04:48:43.883Z,25.03
2023-05-14T04:51:10.349Z,21.43
2023-05-14T04:53:36.811Z,26.40
2023-05-14T04:56:03.267Z,22.10
2023-05-14T04:58:33.776Z,24.10
2023-05-14T05:01:02.873Z,32.10
2023-05-14T05:03:29.504Z,26.00
2023-05-14T05:05:56.047Z,25.77
2023-05-14T05:08:22.815Z,28.57
2023-05-14T05:10:49.281Z,26.30
2023-05-14T05:13:17.000Z,31.20
2023-05-14T05:15:43.890Z,32.10
2023-05-14T05:18:10.362Z,27.23
2023-05-14T05:20:36.870Z,27.00
2023-05-14T05:23:03.347Z,28.13
2023-05-14T05:25:29.945Z,32.03
2023-05-14T05:27:56.702Z,26.47
2023-05-14T05:30:23.505Z,26.23
2023-05-14T05:32:50.270Z,27.23
2023-05-14T05:35:16.907Z,25.47
2023-05-14T05:37:45.133Z,25.47
2023-05-14T05:40:14.008Z,27.77
2023-05-14T05:42:41.535Z,34.10
2023-05-14T05:45:08.833Z,24.80
2023-05-14T05:47:35.353Z,27.60
2023-05-14T05:50:01.919Z,31.50
2023-05-14T05:52:28.740Z,25.17
2023-05-14T05:54:55.251Z,26.10
2023-05-14T05:57:25.642Z,22.10
2023-05-14T05:59:53.147Z,24.03
2023-05-14T06:02:20.015Z,29.13
2023-05-14T06:04:46.829Z,32.70
2023-05-14T06:07:13.356Z,29.23
2023-05-14T06:09:39.842Z,28.20
2023-05-14T06:12:06.854Z,29.00
2023-05-14T06:14:33.339Z,25.97
2023-05-14T06:16:59.965Z,25.10
2023-05-14T06:19:26.600Z,30.30
2023-05-14T06:21:53.088Z,24.10
2023-05-14T06:24:20.343Z,26.43
2023-05-14T06:26:48.786Z,32.87
2023-05-14T06:29:15.421Z,25.53
2023-05-14T06:31:42.025Z,24.47
2023-05-14T06:34:09.185Z,27.70
2023-05-14T06:36:35.681Z,25.00
2023-05-14T06:39:02.154Z,23.77
2023-05-14T06:41:29.577Z,27.63
2023-05-14T06:43:56.050Z,31.13
2023-05-14T06:46:22.666Z,27.27
2023-05-14T06:48:49.638Z,28.67
2023-05-14T06:51:16.270Z,21.13
2023-05-14T06:53:42.810Z,24.60
2023-05-14T06:56:09.380Z,21.80
2023-05-14T06:58:35.901Z,20.97
2023-05-14T07:01:02.444Z,24.60
2023-05-14T07:03:29.157Z,22.50
2023-05-14T07:05:55.886Z,21.70
2023-05-14T07:08:22.429Z,25.60
2023-05-14T07:10:49.090Z,26.63
2023-05-14T07:13:15.758Z,24.93
2023-05-14T07:15:42.245Z,23.00
2023-05-14T07:18:08.812Z,20.07
2023-05-14T07:20:35.505Z,25.70
2023-05-14T07:23:01.991Z,29.90
2023-05-14T07:25:28.587Z,24.17
2023-05-14T07:27:55.739Z,27.33
2023-05-14T07:30:22.536Z,24.63
2023-05-14T07:32:49.377Z,28.00
2023-05-14T07:35:16.235Z,29.07
2023-05-14T07:37:43.447Z,25.20
2023-05-14T07:40:10.390Z,25.07
2023-05-14T07:42:37.514Z,34.70
2023-05-14T07:45:05.351Z,25.70
2023-05-14T07:47:32.252Z,27.47
2023-05-14T07:49:59.226Z,36.33
2023-05-14T07:52:25.817Z,27.10
2023-05-14T07:54:52.624Z,22.47
2023-05-14T07:57:20.214Z,25.80
2023-05-14T07:59:48.232Z,28.60
2023-05-14T08:02:16.200Z,24.50
2023-05-14T08:04:43.036Z,31.47
2023-05-14T08:07:09.596Z,22.63
2023-05-14T08:09:36.131Z,27.53
2023-05-14T08:12:02.892Z,23.83
2023-05-14T08:14:29.401Z,26.10
2023-05-14T08:16:55.974Z,30.00
2023-05-14T08:19:24.285Z,28.70
2023-05-14T08:21:51.422Z,25.77
2023-05-14T08:24:18.769Z,26.70
2023-05-14T08:26:45.277Z,22.67
2023-05-14T08:29:13.402Z,22.83
2023-05-14T08:31:41.348Z,23.80
2023-05-14T08:34:08.028Z,24.30
2023-05-14T08:36:34.697Z,20.77
2023-05-14T08:39:01.486Z,21.53
2023-05-14T08:41:28.201Z,21.40
2023-05-14T08:44:13.516Z,18.23
2023-05-14T08:46:41.375Z,20.97
2023-05-14T08:49:25.106Z,19.40
2023-05-14T08:51:51.785Z,18.13
2023-05-14T08:54:22.474Z,17.93
2023-05-14T08:56:52.001Z,18.73
2023-05-14T08:59:19.139Z,17.23
2023-05-14T09:01:54.493Z,17.13
2023-05-14T09:04:23.152Z,18.73
2023-05-14T09:06:51.693Z,18.20
2023-05-14T09:09:18.601Z,16.30
2023-05-14T09:11:49.592Z,17.43
2023-05-14T09:14:16.346Z,19.97
2023-05-14T09:16:47.332Z,20.67
2023-05-14T09:19:15.700Z,15.30
2023-05-14T09:21:44.578Z,17.77
2023-05-14T09:24:20.205Z,17.17
2023-05-14T09:26:51.087Z,15.17
2023-05-14T09:29:17.688Z,15.97
2023-05-14T09:31:44.399Z,14.87
2023-05-14T09:34:11.282Z,14.87
2023-05-14T09:36:38.249Z,14.73
2023-05-14T09:39:04.975Z,15.00
2023-05-14T09:41:31.697Z,18.93
2023-05-14T09:43:58.250Z,21.87
2023-05-14T09:46:30.024Z,19.60
2023-05-14T09:48:56.941Z,21.37
2023-05-14T09:51:23.921Z,20.77
2023-05-14T09:53:53.023Z,22.10
2023-05-14T09:56:19.829Z,19.27
2023-05-14T09:58:46.338Z,21.27
2023-05-14T10:01:14.879Z,16.93
2023-05-14T10:03:41.668Z,22.63
2023-05-14T10:06:10.534Z,21.50
2023-05-14T10:08:41.175Z,21.60
2023-05-14T10:11:17.658Z,17.90
2023-05-14T10:13:51.803Z,19.10
2023-05-14T10:16:41.208Z,18.23
2023-05-14T10:19:12.704Z,15.70
2023-05-14T10:21:42.330Z,14.90
2023-05-14T10:24:09.900Z,14.37
2023-05-14T10:26:39.238Z,14.23
2023-05-14T10:29:06.640Z,12.43
2023-05-14T10:31:56.201Z,14.60
2023-05-14T10:34:33.730Z,14.10
2023-05-14T10:37:06.234Z,12.70
2023-05-14T10:39:51.228Z,10.70
2023-05-14T10:42:19.172Z,11.80
2023-05-14T10:44:53.444Z,10.57
2023-05-14T10:47:20.101Z,11.70
2023-05-14T10:49:50.748Z,11.03
2023-05-14T10:52:19.352Z,10.00
2023-05-14T10:54:49.835Z,13.27
2023-05-14T10:57:18.837Z,14.23
2023-05-14T10:59:47.311Z,10.87
2023-05-14T11:02:27.950Z,10.90
2023-05-14T11:05:05.076Z,11.83
2023-05-14T11:07:33.999Z,11.37
2023-05-14T11:10:04.295Z,11.83
2023-05-14T11:12:31.188Z,11.10
2023-05-14T11:14:59.262Z,11.23
2023-05-14T11:17:27.155Z,11.50
2023-05-14T11:19:54.476Z,10.10
2023-05-14T11:22:21.184Z,10.40
2023-05-14T11:24:47.732Z,9.23
2023-05-14T11:27:14.530Z,10.30
2023-05-14T11:29:45.396Z,9.70
2023-05-14T11:32:13.619Z,13.33
2023-05-14T11:34:40.883Z,10.93
2023-05-14T11:37:08.699Z,11.07
2023-05-14T11:39:38.949Z,11.90
2023-05-14T11:42:11.832Z,11.37
2023-05-14T11:44:39.310Z,12.20
2023-05-14T11:47:06.448Z,11.77
2023-05-14T11:49:35.535Z,9.20
2023-05-14T11:52:04.339Z,12.10
2023-05-14T11:54:32.250Z,9.70
2023-05-14T11:57:01.829Z,7.73
2023-05-14T11:59:31.379Z,9.90
2023-05-14T12:02:02.637Z,10.20
2023-05-14T12:04:29.573Z,9.97
2023-05-14T12:06:58.586Z,12.37
2023-05-14T12:09:25.943Z,13.73
2023-05-14T12:11:52.849Z,12.33
2023-05-14T12:14:22.228Z,12.27
2023-05-14T12:16:49.836Z,12.13
2023-05-14T12:19:19.786Z,8.57
2023-05-14T12:21:48.280Z,12.20
2023-05-14T12:24:18.273Z,11.30
2023-05-14T12:26:49.614Z,9.93
2023-05-14T12:29:16.916Z,11.20
2023-05-14T12:31:48.358Z,10.37
2023-05-14T12:34:15.810Z,10.67
2023-05-14T12:36:43.427Z,9.77
2023-05-14T12:39:11.175Z,7.90
2023-05-14T12:41:37.901Z,9.37
2023-05-14T12:44:05.045Z,9.63
2023-05-14T12:46:32.903Z,10.90
2023-05-14T12:48:59.857Z,11.03
2023-05-14T12:51:26.366Z,10.07
2023-05-14T12:53:54.163Z,14.93
2023-05-14T12:56:21.943Z,8.37
2023-05-14T12:58:48.550Z,7.73
2023-05-14T13:01:15.122Z,7.10
2023-05-14T13:03:41.679Z,10.40
2023-05-14T13:06:08.282Z,9.97
2023-05-14T13:08:35.347Z,6.80
2023-05-14T13:11:01.855Z,8.27
2023-05-14T13:13:28.504Z,8.40
2023-05-14T13:15:55.542Z,7.80
2023-05-14T13:18:22.063Z,8.83
2023-05-14T13:20:48.897Z,10.20
2023-05-14T13:23:15.592Z,6.80
2023-05-14T13:25:42.215Z,7.47
2023-05-14T13:28:09.243Z,8.90
2023-05-14T13:30:35.954Z,6.87
2023-05-14T13:33:02.530Z,7.33
2023-05-14T13:35:29.194Z,7.17
2023-05-14T13:37:55.759Z,6.43
2023-05-14T13:40:22.349Z,5.53
2023-05-14T13:42:49.204Z,7.03
2023-05-14T13:45:15.744Z,8.03
2023-05-14T13:47:42.711Z,6.30
2023-05-14T13:50:09.431Z,7.20
2023-05-14T13:52:36.149Z,8.07
2023-05-14T13:55:02.676Z,7.20
2023-05-14T13:57:29.171Z,3.93
2023-05-14T13:59:56.015Z,8.30
2023-05-14T14:02:22.553Z,5.10
2023-05-14T14:04:49.440Z,6.07
2023-05-14T14:07:16.038Z,6.23
2023-05-14T14:09:42.561Z,4.90
2023-05-14T14:12:09.609Z,8.17
2023-05-14T14:14:36.167Z,5.93
2023-05-14T14:17:02.728Z,6.53
2023-05-14T14:19:29.280Z,5.70
2023-05-14T14:21:55.793Z,4.67
2023-05-14T14:24:22.405Z,5.00
2023-05-14T14:26:48.899Z,5.47
2023-05-14T14:29:15.737Z,3.53
2023-05-14T14:31:43.448Z,4.10
2023-05-14T14:34:10.104Z,4.10
2023-05-14T14:36:36.679Z,5.10
2023-05-14T14:39:03.603Z,5.40
2023-05-14T14:41:30.256Z,5.70
2023-05-14T14:43:57.405Z,4.10
2023-05-14T14:46:24.193Z,3.90
2023-05-14T14:48:51.331Z,5.30
2023-05-14T14:51:17.993Z,3.90
2023-05-14T14:53:44.884Z,4.37
2023-05-14T14:56:11.572Z,3.20
2023-05-14T14:58:38.375Z,3.73
2023-05-14T15:01:05.619Z,2.87
2023-05-14T15:03:32.524Z,7.70
2023-05-14T15:05:59.519Z,3.70
2023-05-14T15:08:30.075Z,4.80
2023-05-14T15:10:56.919Z,3.90
2023-05-14T15:13:24.372Z,2.30
2023-05-14T15:15:52.471Z,3.20
2023-05-14T15:18:19.076Z,34.20
2023-05-14T15:20:46.232Z,36.57
2023-05-14T15:23:12.865Z,4.53
2023-05-14T15:25:39.527Z,2.90
2023-05-14T15:28:07.374Z,3.03
2023-05-14T15:30:34.106Z,3.73
2023-05-14T15:33:01.027Z,3.67
2023-05-14T15:35:27.556Z,3.10
2023-05-14T15:37:57.175Z,4.27
2023-05-14T15:40:24.063Z,3.10
2023-05-14T15:42:50.770Z,3.63
2023-05-14T15:45:17.430Z,3.30
2023-05-14T15:47:45.048Z,3.87
2023-05-14T15:50:11.770Z,3.23
2023-05-14T15:52:39.143Z,2.67
2023-05-14T15:55:06.246Z,2.50
2023-05-14T15:57:33.043Z,3.53
2023-05-14T15:59:59.611Z,2.30
2023-05-14T16:02:29.666Z,3.40
2023-05-14T16:04:56.281Z,3.40
2023-05-14T16:07:23.064Z,2.23
2023-05-14T16:09:49.563Z,3.30
2023-05-14T16:12:16.187Z,3.00
2023-05-14T16:14:42.717Z,3.77
2023-05-14T16:17:09.415Z,5.30
2023-05-14T16:19:36.437Z,4.00
2023-05-14T16:22:03.039Z,4.70
2023-05-14T16:24:29.650Z,3.13
2023-05-14T16:26:56.484Z,6.10
2023-05-14T16:29:22.982Z,11.57
2023-05-14T16:31:49.609Z,2.63
2023-05-14T16:34:16.163Z,4.00
2023-05-14T16:36:42.854Z,4.40
2023-05-14T16:39:09.416Z,3.43
2023-05-14T16:41:36.120Z,4.83
2023-05-14T16:44:03.409Z,2.53
2023-05-14T16:46:31.273Z,3.13
2023-05-14T16:48:57.914Z,2.10
2023-05-14T16:51:24.456Z,2.40
2023-05-14T16:53:51.961Z,2.87
2023-05-14T16:56:18.946Z,3.10
2023-05-14T16:58:45.505Z,2.63
2023-05-14T17:01:12.078Z,3.23
2023-05-14T17:03:38.655Z,4.30
2023-05-14T17:06:05.575Z,4.67
2023-05-14T17:08:33.596Z,3.20
2023-05-14T17:11:00.597Z,2.67
2023-05-14T17:13:27.177Z,3.93
2023-05-14T17:15:53.771Z,5.53
2023-05-14T17:18:20.432Z,3.20
2023-05-14T17:20:46.922Z,2.67
2023-05-14T17:23:13.506Z,3.57
2023-05-14T17:25:40.032Z,2.60
2023-05-14T17:28:06.618Z,2.40
2023-05-14T17:30:33.114Z,3.43
2023-05-14T17:32:59.898Z,3.50
2023-05-14T17:35:26.598Z,2.70
2023-05-14T17:37:53.125Z,3.40
2023-05-14T17:40:19.764Z,5.23
2023-05-14T17:42:46.357Z,3.93
2023-05-14T17:45:13.571Z,3.17
2023-05-14T17:47:41.258Z,3.00
2023-05-14T17:50:08.356Z,3.23
2023-05-14T17:52:34.865Z,3.80
2023-05-14T17:55:01.370Z,4.43
2023-05-14T17:57:27.923Z,4.10
2023-05-14T17:59:54.593Z,3.00
2023-05-14T18:02:21.103Z,3.40
2023-05-14T18:04:47.637Z,3.60
2023-05-14T18:07:14.261Z,2.80
2023-05-14T18:09:41.225Z,3.20
2023-05-14T18:12:08.292Z,8.33
2023-05-14T18:14:34.773Z,2.50
2023-05-14T18:17:01.379Z,2.73
2023-05-14T18:19:27.881Z,3.60
2023-05-14T18:21:55.539Z,3.20
2023-05-14T18:24:22.344Z,2.60
2023-05-14T18:26:48.988Z,5.50
2023-05-14T18:29:15.565Z,2.77
2023-05-14T18:31:42.058Z,3.73
2023-05-14T18:34:08.565Z,3.40
2023-05-14T18:36:35.322Z,2.83
2023-05-14T18:39:02.101Z,2.60
2023-05-14T18:41:28.666Z,3.50
2023-05-14T18:43:55.320Z,3.97
2023-05-14T18:46:21.880Z,3.20
2023-05-14T18:48:48.393Z,10.33
2023-05-14T18:51:15.021Z,3.53
2023-05-14T18:53:41.526Z,3.23
2023-05-14T18:56:09.501Z,2.83
2023-05-14T18:58:36.132Z,2.67
2023-05-14T19:01:02.778Z,3.60
2023-05-14T19:03:29.417Z,3.20
2023-05-14T19:05:56.002Z,3.10
2023-05-14T19:08:22.568Z,3.03
2023-05-14T19:10:49.265Z,4.30
2023-05-14T19:13:18.714Z,3.10
2023-05-14T19:15:45.348Z,3.60
2023-05-14T19:18:12.974Z,2.90
2023-05-14T19:20:39.504Z,3.13
2023-05-14T19:23:06.106Z,2.33
2023-05-14T19:25:33.670Z,2.87
2023-05-14T19:28:02.094Z,2.87
2023-05-14T19:30:28.591Z,3.20
2023-05-14T19:32:55.180Z,5.03
2023-05-14T19:35:22.206Z,4.13
2023-05-14T19:37:48.835Z,7.33
2023-05-14T19:40:15.390Z,6.53
2023-05-14T19:42:42.236Z,5.90
2023-05-14T19:45:10.152Z,6.60
2023-05-14T19:47:36.879Z,4.73
2023-05-14T19:50:03.612Z,5.20
2023-05-14T19:52:30.126Z,7.57
2023-05-14T19:54:56.892Z,9.00
2023-05-14T19:57:23.522Z,9.00
2023-05-14T19:59:50.070Z,8.33
2023-05-14T20:02:18.256Z,6.50
2023-05-14T20:04:46.089Z,7.43
2023-05-14T20:07:14.480Z,7.80
2023-05-14T20:09:41.651Z,6.33
2023-05-14T20:12:08.943Z,4.53
2023-05-14T20:14:35.873Z,8.50
2023-05-14T20:17:02.540Z,8.10
2023-05-14T20:19:29.111Z,5.07
2023-05-14T20:21:56.418Z,5.27
2023-05-14T20:24:22.914Z,4.93
2023-05-14T20:26:49.523Z,4.57
2023-05-14T20:29:16.092Z,4.70
2023-05-14T20:31:42.599Z,6.03
2023-05-14T20:34:09.467Z,4.90
2023-05-14T20:36:36.093Z,4.37
2023-05-14T20:39:02.889Z,4.97
2023-05-14T20:41:29.415Z,4.47
2023-05-14T20:43:55.935Z,4.37
2023-05-14T20:46:22.599Z,3.77
2023-05-14T20:48:49.382Z,5.07
2023-05-14T20:51:15.975Z,4.73
2023-05-14T20:53:42.782Z,3.97
2023-05-14T20:56:09.486Z,5.83
2023-05-14T20:58:36.021Z,6.17
2023-05-14T21:01:03.675Z,7.13
2023-05-14T21:03:30.578Z,4.97
2023-05-14T21:05:57.300Z,4.60
2023-05-14T21:08:23.799Z,5.23
2023-05-14T21:10:50.460Z,4.37
2023-05-14T21:13:16.947Z,4.50
2023-05-14T21:15:43.628Z,4.33
2023-05-14T21:18:11.409Z,4.00
2023-05-14T21:20:38.221Z,5.30
2023-05-14T21:23:04.767Z,4.13
2023-05-14T21:25:31.568Z,4.90
2023-05-14T21:27:58.066Z,5.10
2023-05-14T21:30:24.697Z,4.60
2023-05-14T21:32:51.667Z,9.20
2023-05-14T21:35:18.353Z,5.37
2023-05-14T21:37:45.005Z,4.70
2023-05-14T21:40:14.624Z,6.90
2023-05-14T21:42:41.111Z,4.07
2023-05-14T21:45:08.025Z,4.97
2023-05-14T21:47:34.747Z,4.30
2023-05-14T21:50:01.353Z,5.20
2023-05-14T21:52:27.863Z,4.23
2023-05-14T21:54:54.665Z,5.83
2023-05-14T21:57:21.261Z,4.10
2023-05-14T21:59:47.758Z,6.10
2023-05-14T22:02:14.718Z,4.47
2023-05-14T22:04:41.280Z,5.30
2023-05-14T22:07:07.881Z,4.60
2023-05-14T22:09:34.389Z,4.10
2023-05-14T22:12:00.891Z,7.23
2023-05-14T22:14:27.489Z,4.97
2023-05-14T22:16:54.136Z,5.37
2023-05-14T22:19:21.105Z,4.87
2023-05-14T22:21:47.629Z,5.60
2023-05-14T22:24:14.158Z,5.07
2023-05-14T22:26:40.696Z,14.80
2023-05-14T22:29:07.208Z,5.40
2023-05-14T22:31:33.690Z,5.87
2023-05-14T22:34:00.231Z,5.73
2023-05-14T22:36:26.969Z,6.27
2023-05-14T22:38:53.448Z,4.80
2023-05-14T22:41:21.826Z,7.50
2023-05-14T22:43:49.178Z,6.57
2023-05-14T22:46:16.037Z,7.90
2023-05-14T22:48:42.675Z,5.90
2023-05-14T22:51:09.198Z,7.77
2023-05-14T22:53:35.893Z,6.47
2023-05-14T22:56:02.776Z,6.97
2023-05-14T22:58:29.318Z,7.93
2023-05-14T23:00:55.977Z,7.03
2023-05-14T23:03:22.498Z,6.27
2023-05-14T23:05:49.205Z,5.67
2023-05-14T23:08:15.773Z,5.87
2023-05-14T23:10:42.264Z,5.70
2023-05-14T23:13:08.882Z,6.87
2023-05-14T23:15:35.416Z,7.40
2023-05-14T23:18:02.118Z,6.23
2023-05-14T23:20:28.630Z,7.03
2023-05-14T23:22:55.098Z,5.77
2023-05-14T23:25:21.576Z,5.40
2023-05-14T23:27:48.305Z,7.30
2023-05-14T23:30:14.847Z,7.07
2023-05-14T23:32:41.366Z,6.70
2023-05-14T23:35:08.274Z,6.33
2023-05-14T23:37:36.783Z,5.87
2023-05-14T23:40:04.443Z,4.63
2023-05-14T23:42:30.980Z,7.53
2023-05-14T23:44:57.492Z,6.10
2023-05-14T23:47:24.069Z,6.13
2023-05-14T23:49:50.710Z,6.23
2023-05-14T23:52:17.227Z,6.53
2023-05-14T23:54:43.782Z,5.80
2023-05-14T23:57:12.948Z,5.77
2023-05-14T23:59:40.839Z,6.20
